createdAt,value
2019-02-08T00:00:20.587Z,0.58
2019-02-08T00:02:52.026Z,0.59
2019-02-08T00:05:24.264Z,0.59
2019-02-08T00:07:57.129Z,0.59
2019-02-08T00:10:29.318Z,0.59
2019-02-08T00:13:02.020Z,0.63
2019-02-08T00:15:36.389Z,0.61
2019-02-08T00:18:10.020Z,0.63
2019-02-08T00:20:41.291Z,0.63
2019-02-08T00:23:26.013Z,0.64
2019-02-08T00:25:49.087Z,0.65
2019-02-08T00:28:23.014Z,0.67
2019-02-08T00:30:56.186Z,0.70
2019-02-08T00:33:30.267Z,0.70
2019-02-08T00:36:01.907Z,0.71
2019-02-08T00:38:35.304Z,0.74
2019-02-08T00:41:09.272Z,0.75
2019-02-08T00:43:43.156Z,0.76
2019-02-08T00:46:17.256Z,0.77
2019-02-08T00:48:50.908Z,0.77
2019-02-08T00:51:22.284Z,0.81
2019-02-08T00:53:53.634Z,0.80
2019-02-08T00:56:27.359Z,0.80
2019-02-08T00:59:01.376Z,0.77
2019-02-08T01:01:34.391Z,0.78
2019-02-08T01:04:09.936Z,0.80
2019-02-08T01:06:42.710Z,0.79
2019-02-08T01:09:13.966Z,0.77
2019-02-08T01:11:47.465Z,0.76
2019-02-08T01:14:21.354Z,0.75
2019-02-08T01:16:55.333Z,0.75
2019-02-08T01:19:29.370Z,0.76
2019-02-08T01:22:03.208Z,0.77
2019-02-08T01:24:36.652Z,0.76
2019-02-08T01:27:10.512Z,0.77
2019-02-08T01:29:43.506Z,0.81
2019-02-08T01:32:15.557Z,0.83
2019-02-08T01:34:49.564Z,0.82
2019-02-08T01:37:23.602Z,0.84
2019-02-08T01:39:57.627Z,0.84
2019-02-08T01:42:31.486Z,0.82
2019-02-08T01:45:06.532Z,0.84
2019-02-08T01:47:39.517Z,0.84
2019-02-08T01:50:17.709Z,0.85
2019-02-08T01:52:50.866Z,0.88
2019-02-08T01:55:24.583Z,0.87
2019-02-08T01:57:58.518Z,0.90
2019-02-08T02:00:35.490Z,0.90
2019-02-08T02:03:10.913Z,0.90
2019-02-08T02:05:42.563Z,0.93
2019-02-08T02:08:14.551Z,0.95
2019-02-08T02:10:48.544Z,1.00
2019-02-08T02:13:20.646Z,1.01
2019-02-08T02:15:52.711Z,0.99
2019-02-08T02:18:23.964Z,1.01
2019-02-08T02:20:55.316Z,0.99
2019-02-08T02:23:28.590Z,1.03
2019-02-08T02:25:59.859Z,1.01
2019-02-08T02:28:31.117Z,1.04
2019-02-08T02:31:02.740Z,1.08
2019-02-08T02:33:35.670Z,1.01
2019-02-08T02:36:11.447Z,0.97
2019-02-08T02:38:42.844Z,0.96
2019-02-08T02:41:15.103Z,0.99
2019-02-08T02:43:48.799Z,0.97
2019-02-08T02:46:20.049Z,0.94
2019-02-08T02:48:53.830Z,0.98
2019-02-08T02:51:27.855Z,0.94
2019-02-08T02:54:04.928Z,0.97
2019-02-08T02:56:35.878Z,0.96
2019-02-08T02:59:09.900Z,0.98
2019-02-08T03:01:41.168Z,0.90
2019-02-08T03:04:14.765Z,0.89
2019-02-08T03:06:48.908Z,0.85
2019-02-08T03:09:22.866Z,0.83
2019-02-08T03:11:56.884Z,0.86
2019-02-08T03:14:30.688Z,0.88
2019-02-08T03:17:02.176Z,0.87
2019-02-08T03:19:35.914Z,0.83
2019-02-08T03:22:07.174Z,0.86
2019-02-08T03:24:39.917Z,0.89
2019-02-08T03:27:12.451Z,0.81
2019-02-08T03:29:45.939Z,0.81
2019-02-08T03:32:19.859Z,0.80
2019-02-08T03:34:53.034Z,0.79
2019-02-08T03:37:24.721Z,0.80
2019-02-08T03:39:55.979Z,0.80
2019-02-08T03:42:27.295Z,0.75
2019-02-08T03:45:00.990Z,0.74
2019-02-08T03:47:35.114Z,0.72
2019-02-08T03:50:11.647Z,0.73
2019-02-08T03:52:44.095Z,0.73
2019-02-08T03:55:18.892Z,0.75
2019-02-08T03:57:51.249Z,0.76
2019-02-08T04:00:50.721Z,0.78
2019-02-08T04:03:23.131Z,0.80
2019-02-08T04:05:57.260Z,0.81
2019-02-08T04:08:30.243Z,0.85
2019-02-08T04:11:02.377Z,0.87
2019-02-08T04:13:36.508Z,0.88
2019-02-08T04:16:10.091Z,0.89
2019-02-08T04:18:42.519Z,0.90
2019-02-08T04:21:15.263Z,0.91
2019-02-08T04:23:49.288Z,0.93
2019-02-08T04:26:24.119Z,0.96
2019-02-08T04:28:56.374Z,0.95
2019-02-08T04:31:30.310Z,0.96
2019-02-08T04:34:02.676Z,0.96
2019-02-08T04:36:36.959Z,0.97
2019-02-08T04:39:10.411Z,1.01
2019-02-08T04:41:42.661Z,1.04
2019-02-08T04:44:16.282Z,1.05
2019-02-08T04:46:49.347Z,1.05
2019-02-08T04:49:22.424Z,1.04
2019-02-08T04:51:53.742Z,1.05
2019-02-08T04:54:25.001Z,1.05
2019-02-08T04:56:58.375Z,1.05
2019-02-08T04:59:32.552Z,1.07
2019-02-08T05:02:06.451Z,1.07
2019-02-08T05:04:40.709Z,1.09
2019-02-08T05:07:14.369Z,1.15
2019-02-08T05:09:45.633Z,1.15
2019-02-08T05:12:16.927Z,1.14
2019-02-08T05:14:50.461Z,1.13
2019-02-08T05:17:24.464Z,1.15
2019-02-08T05:19:58.479Z,1.13
2019-02-08T05:22:32.525Z,1.11
2019-02-08T05:25:04.338Z,1.11
2019-02-08T05:27:37.011Z,1.11
2019-02-08T05:30:18.815Z,1.09
2019-02-08T05:32:52.940Z,1.07
2019-02-08T05:35:26.922Z,1.05
2019-02-08T05:38:00.774Z,1.04
2019-02-08T05:40:36.277Z,1.01
2019-02-08T05:43:10.420Z,1.00
2019-02-08T05:45:43.899Z,1.10
2019-02-08T05:48:16.607Z,1.07
2019-02-08T05:50:47.882Z,1.07
2019-02-08T05:53:21.720Z,1.07
2019-02-08T05:55:55.681Z,1.06
2019-02-08T05:58:31.500Z,1.07
2019-02-08T06:01:03.868Z,1.07
2019-02-08T06:03:37.045Z,1.09
2019-02-08T06:06:08.641Z,1.13
2019-02-08T06:08:40.860Z,1.14
2019-02-08T06:11:13.789Z,1.17
2019-02-08T06:13:49.357Z,1.18
2019-02-08T06:16:21.806Z,1.19
2019-02-08T06:18:55.728Z,1.21
2019-02-08T06:21:28.920Z,1.24
2019-02-08T06:24:00.305Z,1.28
2019-02-08T06:26:31.876Z,1.34
2019-02-08T06:29:04.887Z,1.38
2019-02-08T06:31:36.920Z,1.40
2019-02-08T06:34:10.798Z,1.55
2019-02-08T06:36:43.832Z,1.60
2019-02-08T06:39:19.404Z,1.59
2019-02-08T06:41:52.589Z,1.61
2019-02-08T06:44:25.800Z,1.60
2019-02-08T06:47:02.311Z,1.60
2019-02-08T06:49:34.980Z,1.61
2019-02-08T06:52:09.779Z,1.60
2019-02-08T06:54:42.252Z,1.61
2019-02-08T06:57:30.431Z,1.63
2019-02-08T07:00:26.943Z,1.67
2019-02-08T07:03:17.599Z,1.69
2019-02-08T07:06:11.940Z,1.75
2019-02-08T07:08:53.740Z,1.75
2019-02-08T07:11:48.554Z,1.80
2019-02-08T07:14:48.429Z,1.82
2019-02-08T07:17:36.034Z,1.86
2019-02-08T07:20:16.078Z,1.89
2019-02-08T07:23:06.926Z,1.94
2019-02-08T07:26:10.099Z,2.00
2019-02-08T07:28:49.731Z,2.00
2019-02-08T07:31:46.776Z,2.03
2019-02-08T07:34:34.617Z,1.99
2019-02-08T07:37:26.145Z,2.00
2019-02-08T07:40:19.436Z,1.98
2019-02-08T07:43:10.786Z,2.00
2019-02-08T07:46:08.277Z,2.08
2019-02-08T07:49:18.291Z,2.15
2019-02-08T07:52:00.127Z,2.22
2019-02-08T07:55:02.117Z,2.28
2019-02-08T07:57:54.153Z,2.36
2019-02-08T08:01:10.426Z,2.44
2019-02-08T08:04:10.019Z,2.51
2019-02-08T08:07:11.757Z,2.59
2019-02-08T08:10:12.849Z,2.66
2019-02-08T08:13:18.153Z,2.75
2019-02-08T08:16:17.714Z,2.87
2019-02-08T08:19:12.306Z,2.98
2019-02-08T08:22:05.018Z,3.04
2019-02-08T08:24:59.283Z,3.04
2019-02-08T08:27:50.345Z,3.08
2019-02-08T08:30:32.248Z,3.21
2019-02-08T08:33:17.937Z,3.40
2019-02-08T08:36:39.311Z,3.49
2019-02-08T08:40:08.628Z,3.60
2019-02-08T08:43:20.035Z,3.67
2019-02-08T08:46:29.186Z,3.71
2019-02-08T08:50:00.660Z,3.77
2019-02-08T08:53:14.294Z,3.82
2019-02-08T08:56:22.497Z,3.88
2019-02-08T08:59:33.022Z,3.93
2019-02-08T09:03:05.423Z,3.99
2019-02-08T09:06:09.053Z,4.06
2019-02-08T09:09:22.717Z,4.08
2019-02-08T09:12:35.345Z,4.14
2019-02-08T09:15:45.689Z,4.28
2019-02-08T09:18:55.930Z,4.57
2019-02-08T09:22:17.560Z,4.76
2019-02-08T09:25:15.266Z,4.99
2019-02-08T09:28:16.580Z,5.22
2019-02-08T09:31:29.419Z,5.42
2019-02-08T09:34:49.184Z,5.54
2019-02-08T09:37:51.890Z,5.60
2019-02-08T09:41:15.018Z,5.87
2019-02-08T09:44:39.918Z,6.02
2019-02-08T09:47:35.583Z,6.13
2019-02-08T09:50:32.500Z,6.26
2019-02-08T09:53:41.024Z,6.26
2019-02-08T09:56:31.418Z,6.40
2019-02-08T09:59:46.551Z,6.35
2019-02-08T10:03:08.019Z,6.26
2019-02-08T10:06:19.907Z,6.45
2019-02-08T10:09:27.562Z,6.41
2019-02-08T10:12:41.691Z,6.51
2019-02-08T10:16:01.426Z,6.73
2019-02-08T10:19:20.035Z,6.95
2019-02-08T10:22:52.095Z,7.22
2019-02-08T10:26:06.557Z,7.23
2019-02-08T10:29:13.961Z,7.16
2019-02-08T10:32:55.802Z,7.13
2019-02-08T10:36:04.858Z,7.22
2019-02-08T10:39:23.104Z,7.33
2019-02-08T10:42:17.802Z,7.35
2019-02-08T10:45:39.214Z,7.45
2019-02-08T10:48:53.029Z,7.52
2019-02-08T10:52:20.862Z,7.76
2019-02-08T10:55:27.715Z,7.92
2019-02-08T10:58:53.011Z,8.17
2019-02-08T11:02:02.031Z,8.48
2019-02-08T11:05:13.774Z,8.69
2019-02-08T11:08:23.057Z,8.48
2019-02-08T11:11:38.932Z,8.64
2019-02-08T11:14:50.081Z,8.86
2019-02-08T11:18:00.469Z,8.70
2019-02-08T11:20:32.178Z,8.45
2019-02-08T11:23:04.251Z,8.37
2019-02-08T11:25:37.402Z,8.52
2019-02-08T11:28:08.650Z,8.73
2019-02-08T11:30:39.915Z,8.95
2019-02-08T11:33:13.256Z,9.02
2019-02-08T11:35:48.759Z,9.24
2019-02-08T11:38:23.728Z,9.22
2019-02-08T11:40:55.075Z,9.08
2019-02-08T11:43:29.054Z,8.87
2019-02-08T11:46:00.279Z,8.83
2019-02-08T11:48:34.386Z,8.95
2019-02-08T11:51:08.285Z,9.00
2019-02-08T11:53:41.311Z,8.87
2019-02-08T11:56:13.371Z,8.77
2019-02-08T11:58:47.407Z,8.70
2019-02-08T12:01:19.559Z,8.91
2019-02-08T12:03:52.034Z,8.91
2019-02-08T12:06:24.097Z,8.97
2019-02-08T12:08:57.276Z,9.15
2019-02-08T12:11:31.369Z,9.37
2019-02-08T12:14:02.612Z,9.29
2019-02-08T12:16:35.426Z,9.28
2019-02-08T12:19:10.980Z,9.08
2019-02-08T12:21:43.355Z,8.97
2019-02-08T12:24:14.837Z,9.02
2019-02-08T12:26:46.102Z,9.00
2019-02-08T12:29:19.415Z,9.10
2019-02-08T12:31:54.958Z,9.24
2019-02-08T12:34:27.341Z,9.41
2019-02-08T12:37:02.955Z,9.26
2019-02-08T12:39:35.369Z,9.12
2019-02-08T12:42:06.629Z,9.06
2019-02-08T12:44:37.949Z,9.09
2019-02-08T12:47:12.570Z,9.33
2019-02-08T12:49:45.494Z,8.98
2019-02-08T12:52:19.469Z,9.14
2019-02-08T12:54:53.506Z,9.43
2019-02-08T12:57:29.070Z,9.58
2019-02-08T13:00:01.612Z,9.61
2019-02-08T13:02:35.020Z,9.61
2019-02-08T13:05:07.378Z,9.66
2019-02-08T13:07:40.596Z,9.69
2019-02-08T13:10:13.985Z,9.72
2019-02-08T13:12:48.247Z,9.68
2019-02-08T13:15:19.761Z,9.68
2019-02-08T13:17:52.508Z,9.69
2019-02-08T13:20:28.166Z,9.66
2019-02-08T13:23:00.661Z,9.56
2019-02-08T13:25:34.649Z,9.37
2019-02-08T13:28:09.945Z,9.45
2019-02-08T13:30:42.704Z,9.32
2019-02-08T13:33:16.785Z,9.32
2019-02-08T13:35:50.688Z,9.31
2019-02-08T13:38:24.781Z,9.25
2019-02-08T13:40:58.721Z,9.18
2019-02-08T13:43:29.984Z,9.03
2019-02-08T13:46:01.238Z,9.03
2019-02-08T13:48:34.835Z,8.99
2019-02-08T13:51:06.129Z,8.99
2019-02-08T13:53:37.858Z,9.02
2019-02-08T13:56:11.207Z,8.98
2019-02-08T13:58:43.788Z,9.06
2019-02-08T14:01:17.440Z,8.92
2019-02-08T14:03:49.773Z,8.92
2019-02-08T14:06:23.776Z,8.85
2019-02-08T14:08:55.033Z,8.80
2019-02-08T14:11:28.712Z,8.75
2019-02-08T14:14:00.285Z,8.76
2019-02-08T14:16:33.925Z,8.75
2019-02-08T14:19:09.663Z,8.69
2019-02-08T14:21:45.384Z,8.60
2019-02-08T14:24:20.475Z,8.59
2019-02-08T14:26:52.787Z,8.55
2019-02-08T14:29:26.812Z,8.57
2019-02-08T14:31:58.045Z,8.60
2019-02-08T14:34:30.850Z,8.61
2019-02-08T14:37:04.860Z,8.47
2019-02-08T14:39:36.175Z,8.41
2019-02-08T14:42:07.552Z,8.37
2019-02-08T14:44:40.621Z,8.34
2019-02-08T14:47:12.688Z,8.33
2019-02-08T14:49:45.991Z,8.18
2019-02-08T14:52:17.291Z,8.25
2019-02-08T14:54:51.050Z,8.15
2019-02-08T14:57:24.986Z,8.08
2019-02-08T14:59:58.957Z,8.03
2019-02-08T15:02:31.083Z,8.04
2019-02-08T15:05:04.752Z,7.98
2019-02-08T15:07:37.682Z,7.94
2019-02-08T15:10:16.232Z,7.91
2019-02-08T15:12:49.314Z,7.90
2019-02-08T15:15:20.553Z,7.82
2019-02-08T15:17:54.069Z,7.75
2019-02-08T15:20:30.859Z,7.68
2019-02-08T15:23:02.152Z,7.58
2019-02-08T15:25:36.145Z,7.47
2019-02-08T15:28:10.132Z,7.33
2019-02-08T15:30:41.384Z,7.20
2019-02-08T15:33:17.178Z,7.08
2019-02-08T15:35:49.157Z,6.98
2019-02-08T15:38:23.191Z,6.97
2019-02-08T15:40:57.588Z,6.93
2019-02-08T15:43:31.086Z,6.92
2019-02-08T15:46:04.436Z,6.79
2019-02-08T15:48:36.096Z,6.67
2019-02-08T15:51:10.530Z,6.54
2019-02-08T15:53:44.280Z,6.44
2019-02-08T15:56:19.767Z,6.30
2019-02-08T15:58:51.728Z,6.08
2019-02-08T16:01:23.087Z,5.93
2019-02-08T16:03:56.222Z,5.76
2019-02-08T16:06:30.247Z,5.59
2019-02-08T16:09:01.498Z,5.41
2019-02-08T16:11:35.353Z,5.26
2019-02-08T16:14:08.296Z,5.13
2019-02-08T16:16:41.270Z,4.92
2019-02-08T16:19:14.293Z,4.80
2019-02-08T16:21:45.652Z,4.68
2019-02-08T16:24:18.523Z,4.63
2019-02-08T16:26:52.549Z,4.52
2019-02-08T16:29:26.499Z,4.40
2019-02-08T16:32:00.432Z,4.23
2019-02-08T16:34:31.713Z,4.15
2019-02-08T16:37:05.630Z,4.09
2019-02-08T16:39:36.923Z,3.96
2019-02-08T16:42:08.277Z,3.74
2019-02-08T16:44:41.519Z,3.60
2019-02-08T16:47:13.687Z,3.50
2019-02-08T16:49:46.425Z,3.42
2019-02-08T16:52:20.797Z,3.32
2019-02-08T16:54:54.432Z,3.18
2019-02-08T16:57:30.011Z,3.03
2019-02-08T17:00:02.479Z,2.88
2019-02-08T17:02:36.255Z,2.80
2019-02-08T17:05:11.505Z,2.72
2019-02-08T17:07:44.658Z,2.64
2019-02-08T17:10:18.614Z,2.58
2019-02-08T17:12:52.668Z,2.53
2019-02-08T17:15:26.419Z,2.49
2019-02-08T17:17:57.823Z,2.42
2019-02-08T17:20:40.034Z,2.33
2019-02-08T17:23:11.791Z,2.25
2019-02-08T17:25:43.036Z,2.15
2019-02-08T17:28:15.833Z,2.08
2019-02-08T17:30:49.583Z,2.03
2019-02-08T17:33:23.775Z,1.99
2019-02-08T17:35:55.058Z,1.92
2019-02-08T17:38:26.369Z,1.88
2019-02-08T17:40:59.747Z,1.83
2019-02-08T17:43:31.020Z,1.84
2019-02-08T17:46:05.147Z,1.86
2019-02-08T17:48:37.886Z,1.87
2019-02-08T17:51:12.505Z,1.71
2019-02-08T17:53:46.524Z,1.55
2019-02-08T17:56:17.863Z,1.55
2019-02-08T17:58:49.772Z,1.49
2019-02-08T18:01:22.462Z,1.40
2019-02-08T18:03:53.713Z,1.32
2019-02-08T18:06:26.854Z,1.25
2019-02-08T18:09:00.773Z,1.26
2019-02-08T18:11:32.137Z,1.26
2019-02-08T18:14:03.901Z,1.19
2019-02-08T18:16:36.912Z,1.10
2019-02-08T18:19:10.876Z,1.06
2019-02-08T18:21:43.893Z,1.07
2019-02-08T18:24:16.004Z,1.10
2019-02-08T18:26:52.690Z,1.17
2019-02-08T18:29:26.029Z,1.13
2019-02-08T18:31:57.988Z,1.09
2019-02-08T18:34:31.167Z,1.03
2019-02-08T18:37:03.046Z,0.93
2019-02-08T18:39:36.085Z,0.82
2019-02-08T18:42:07.465Z,0.68
2019-02-08T18:44:38.754Z,0.57
2019-02-08T18:47:11.981Z,0.45
2019-02-08T18:49:45.267Z,0.39
2019-02-08T18:52:17.130Z,0.37
2019-02-08T18:54:50.162Z,0.36
2019-02-08T18:57:22.226Z,0.30
2019-02-08T18:59:54.100Z,0.27
2019-02-08T19:02:28.325Z,0.24
2019-02-08T19:05:01.096Z,0.18
2019-02-08T19:07:32.372Z,0.13
2019-02-08T19:10:07.892Z,0.09
2019-02-08T19:12:41.160Z,0.09
2019-02-08T19:15:16.319Z,0.22
2019-02-08T19:17:50.303Z,0.23
2019-02-08T19:20:23.417Z,0.22
2019-02-08T19:22:56.421Z,0.18
2019-02-08T19:25:31.333Z,0.17
2019-02-08T19:28:04.645Z,0.18
2019-02-08T19:30:38.444Z,0.16
2019-02-08T19:33:18.924Z,0.12
2019-02-08T19:35:51.303Z,0.07
2019-02-08T19:38:26.880Z,0.00
2019-02-08T19:40:59.279Z,-0.09
2019-02-08T19:43:31.180Z,-0.14
2019-02-08T19:46:05.727Z,-0.18
2019-02-08T19:48:38.288Z,-0.24
2019-02-08T19:51:11.359Z,-0.29
2019-02-08T19:53:43.298Z,-0.34
2019-02-08T19:56:17.372Z,-0.40
2019-02-08T19:58:51.520Z,-0.42
2019-02-08T20:01:22.816Z,-0.45
2019-02-08T20:03:56.251Z,-0.48
2019-02-08T20:06:33.449Z,-0.50
2019-02-08T20:09:10.616Z,-0.54
2019-02-08T20:11:44.430Z,-0.56
2019-02-08T20:14:18.505Z,-0.59
2019-02-08T20:16:54.190Z,-0.63
2019-02-08T20:19:26.567Z,-0.67
2019-02-08T20:22:01.906Z,-0.70
2019-02-08T20:24:35.685Z,-0.73
2019-02-08T20:27:07.524Z,-0.77
2019-02-08T20:29:38.783Z,-0.79
2019-02-08T20:32:12.654Z,-0.81
2019-02-08T20:34:46.739Z,-0.80
2019-02-08T20:37:20.692Z,-0.84
2019-02-08T20:39:52.055Z,-0.84
2019-02-08T20:42:23.398Z,-0.86
2019-02-08T20:44:57.505Z,-0.87
2019-02-08T20:47:33.212Z,-0.91
2019-02-08T20:50:08.292Z,-0.95
2019-02-08T20:52:41.580Z,-1.00
2019-02-08T20:55:13.777Z,-1.01
2019-02-08T20:57:48.029Z,-1.01
2019-02-08T21:00:34.701Z,-1.01
2019-02-08T21:03:18.528Z,-1.02
2019-02-08T21:05:50.780Z,-1.04
2019-02-08T21:08:24.131Z,-1.05
2019-02-08T21:10:55.817Z,-1.06
2019-02-08T21:13:28.700Z,-1.07
2019-02-08T21:16:05.237Z,-1.05
2019-02-08T21:18:39.808Z,-1.08
2019-02-08T21:21:12.591Z,-1.09
2019-02-08T21:23:45.873Z,-1.49
2019-02-08T21:26:19.940Z,-1.14
2019-02-08T21:28:58.097Z,-1.18
2019-02-08T21:31:27.610Z,-1.21
2019-02-08T21:33:58.911Z,-1.22
2019-02-08T21:36:38.774Z,-1.27
2019-02-08T21:39:08.690Z,-1.29
2019-02-08T21:41:43.477Z,-1.29
2019-02-08T21:44:14.804Z,-1.29
2019-02-08T21:46:47.845Z,-1.31
2019-02-08T21:49:19.887Z,-1.33
2019-02-08T21:51:54.240Z,-1.39
2019-02-08T21:54:27.962Z,-1.39
2019-02-08T21:57:00.986Z,-1.39
2019-02-08T21:59:35.358Z,-1.41
2019-02-08T22:02:07.033Z,-1.41
2019-02-08T22:04:38.656Z,-1.43
2019-02-08T22:07:11.129Z,-1.48
2019-02-08T22:09:43.885Z,-1.51
2019-02-08T22:12:16.062Z,-1.56
2019-02-08T22:14:47.554Z,-1.57
2019-02-08T22:17:20.986Z,-1.61
2019-02-08T22:19:54.947Z,-1.63
2019-02-08T22:22:29.012Z,-1.66
2019-02-08T22:25:05.513Z,-1.66
2019-02-08T22:27:40.152Z,-1.65
2019-02-08T22:30:19.504Z,-1.65
2019-02-08T22:32:52.336Z,-1.63
2019-02-08T22:35:26.539Z,-1.63
2019-02-08T22:38:01.580Z,-1.66
2019-02-08T22:40:33.134Z,-1.71
2019-02-08T22:43:08.810Z,-1.75
2019-02-08T22:45:41.823Z,-1.73
2019-02-08T22:48:15.208Z,-1.73
2019-02-08T22:50:50.789Z,-1.73
2019-02-08T22:53:23.338Z,-1.76
2019-02-08T22:55:57.313Z,-1.77
2019-02-08T22:58:31.365Z,-1.78
2019-02-08T23:01:32.915Z,-1.77
2019-02-08T23:04:07.636Z,-1.79
2019-02-08T23:06:44.532Z,-1.87
2019-02-08T23:09:23.604Z,-1.90
2019-02-08T23:11:57.177Z,-1.90
2019-02-08T23:14:28.556Z,-1.90
2019-02-08T23:17:02.237Z,-1.91
2019-02-08T23:19:36.311Z,-1.92
2019-02-08T23:22:10.381Z,-1.93
2019-02-08T23:24:45.639Z,-1.92
2019-02-08T23:27:18.305Z,-1.91
2019-02-08T23:29:53.825Z,-1.90
2019-02-08T23:32:26.285Z,-1.91
2019-02-08T23:35:00.480Z,-1.91
2019-02-08T23:37:31.795Z,-1.91
2019-02-08T23:40:06.336Z,-1.92
2019-02-08T23:42:38.289Z,-1.91
2019-02-08T23:45:10.462Z,-1.92
2019-02-08T23:47:44.354Z,-1.94
2019-02-08T23:50:15.678Z,-1.91
2019-02-08T23:52:47.365Z,-1.91
2019-02-08T23:55:20.706Z,-1.98
2019-02-08T23:57:54.208Z,-1.98
